HZHC1 EGAC-EGAA
Flight info
| Callsign | HZHC1 |
|---|---|
| Flight time | N/A |
| Altitude | 3500 |
| Route | DUFFY |
| Aircraft | H60/L-DGILORTUVY/SB2 |
Departure
| Time | 2026-05-04 03:48 |
|---|---|
| Airport | George Best Belfast City Airport (EGAC) |
Arrival
| Time | N/A |
|---|---|
| Airport | Belfast International Airport (EGAA) |
| Time | Latitude | Longitude | Altitude | Speed | Heading |
|---|---|---|---|---|---|
| 2026-05-04 03:36 | 54.61226 | -5.87951 | 13 ft | 0 kts | 34° |
| 2026-05-04 03:37 | 54.61261 | -5.87898 | 19 ft | 14 kts | 31° |
| 2026-05-04 03:37 | 54.61315 | -5.87827 | 18 ft | 4 kts | 118° |
| 2026-05-04 03:37 | 54.61312 | -5.87809 | 18 ft | 6 kts | 121° |
| 2026-05-04 03:37 | 54.61305 | -5.87797 | 18 ft | 7 kts | 115° |
| 2026-05-04 03:38 | 54.61273 | -5.87700 | 17 ft | 10 kts | 122° |
| 2026-05-04 03:38 | 54.61263 | -5.87616 | 20 ft | 7 kts | 83° |
| 2026-05-04 03:38 | 54.61298 | -5.87550 | 23 ft | 10 kts | 40° |
| 2026-05-04 03:38 | 54.61359 | -5.87475 | 30 ft | 11 kts | 40° |
| 2026-05-04 03:39 | 54.61412 | -5.87383 | 27 ft | 10 kts | 49° |
| 2026-05-04 03:39 | 54.61449 | -5.87324 | 27 ft | 6 kts | 35° |
| 2026-05-04 03:39 | 54.61479 | -5.87289 | 28 ft | 2 kts | 35° |
| 2026-05-04 03:39 | 54.61512 | -5.87252 | 33 ft | 5 kts | 35° |
| 2026-05-04 03:40 | 54.61526 | -5.87249 | 30 ft | 7 kts | 35° |
| 2026-05-04 03:40 | 54.61532 | -5.87230 | 31 ft | 7 kts | 36° |
| 2026-05-04 03:40 | 54.61606 | -5.87137 | 30 ft | 13 kts | 35° |
| 2026-05-04 03:40 | 54.61637 | -5.87098 | 17 ft | 7 kts | 35° |
| 2026-05-04 03:41 | 54.61644 | -5.87090 | 17 ft | 0 kts | 35° |
| 2026-05-04 03:41 | 54.61654 | -5.87078 | 17 ft | 5 kts | 35° |
| 2026-05-04 03:42 | 54.61691 | -5.87032 | 17 ft | 5 kts | 36° |
| 2026-05-04 03:42 | 54.61708 | -5.87010 | 18 ft | 3 kts | 36° |
| 2026-05-04 03:42 | 54.61728 | -5.86990 | 27 ft | 5 kts | 316° |
| 2026-05-04 03:42 | 54.61664 | -5.87037 | 29 ft | 16 kts | 244° |
| 2026-05-04 03:43 | 54.61637 | -5.87093 | 27 ft | 2 kts | 217° |
| 2026-05-04 03:43 | 54.61630 | -5.87106 | 28 ft | 4 kts | 215° |
| 2026-05-04 03:43 | 54.61630 | -5.87110 | 25 ft | 4 kts | 215° |
| 2026-05-04 03:43 | 54.61616 | -5.87123 | 24 ft | 5 kts | 216° |
| 2026-05-04 03:44 | 54.61611 | -5.87122 | 29 ft | 4 kts | 216° |
| 2026-05-04 03:44 | 54.61602 | -5.87140 | 32 ft | 3 kts | 215° |
| 2026-05-04 03:44 | 54.61603 | -5.87147 | 31 ft | 3 kts | 215° |
| 2026-05-04 03:44 | 54.61600 | -5.87157 | 31 ft | 3 kts | 168° |
| 2026-05-04 03:45 | 54.61659 | -5.87067 | 30 ft | 17 kts | 45° |
| 2026-05-04 03:45 | 54.61690 | -5.87027 | 25 ft | 5 kts | 35° |
| 2026-05-04 03:45 | 54.61719 | -5.86995 | 25 ft | 4 kts | 20° |
| 2026-05-04 03:45 | 54.61758 | -5.87002 | 25 ft | 10 kts | 318° |
| 2026-05-04 03:46 | 54.61795 | -5.87090 | 28 ft | 14 kts | 318° |
| 2026-05-04 03:46 | 54.61862 | -5.87174 | 25 ft | 13 kts | 360° |
| 2026-05-04 03:46 | 54.61973 | -5.87064 | 35 ft | 29 kts | 42° |
| 2026-05-04 03:46 | 54.62151 | -5.86831 | 62 ft | 35 kts | 27° |
| 2026-05-04 03:47 | 54.62307 | -5.86646 | 37 ft | 21 kts | 41° |
| 2026-05-04 03:47 | 54.62407 | -5.86571 | 35 ft | 12 kts | 19° |
| 2026-05-04 03:47 | 54.62465 | -5.86485 | 36 ft | 13 kts | 114° |
| 2026-05-04 03:47 | 54.62461 | -5.86380 | 32 ft | 3 kts | 242° |
| 2026-05-04 03:48 | 54.62397 | -5.86511 | 41 ft | 31 kts | 238° |
| 2026-05-04 03:48 | 54.62138 | -5.86885 | 314 ft | 68 kts | 218° |
| 2026-05-04 03:48 | 54.61691 | -5.87374 | 620 ft | 82 kts | 213° |
| 2026-05-04 03:48 | 54.61097 | -5.88037 | 816 ft | 135 kts | 217° |
| 2026-05-04 03:49 | 54.60380 | -5.88941 | 868 ft | 121 kts | 217° |
| 2026-05-04 03:49 | 54.59735 | -5.89942 | 1107 ft | 145 kts | 234° |
| 2026-05-04 03:49 | 54.58832 | -5.90895 | 2011 ft | 161 kts | 210° |
| 2026-05-04 03:49 | 54.57733 | -5.91254 | 2882 ft | 172 kts | 192° |
| 2026-05-04 03:50 | 54.56400 | -5.90976 | 2747 ft | 211 kts | 163° |
| 2026-05-04 03:50 | 54.55134 | -5.89940 | 2640 ft | 188 kts | 146° |
| 2026-05-04 03:50 | 54.54056 | -5.88744 | 3241 ft | 182 kts | 146° |
| 2026-05-04 03:50 | 54.53016 | -5.87498 | 3889 ft | 182 kts | 143° |
| 2026-05-04 03:51 | 54.52059 | -5.86081 | 4484 ft | 180 kts | 136° |
| 2026-05-04 03:51 | 54.51258 | -5.84397 | 4956 ft | 188 kts | 131° |
| 2026-05-04 03:51 | 54.51052 | -5.82154 | 4313 ft | 206 kts | 80° |
| 2026-05-04 03:51 | 54.51731 | -5.80008 | 3418 ft | 199 kts | 53° |
| 2026-05-04 03:52 | 54.52469 | -5.78243 | 3184 ft | 160 kts | 53° |
| 2026-05-04 03:52 | 54.53016 | -5.76797 | 2721 ft | 137 kts | 61° |
| 2026-05-04 03:52 | 54.53458 | -5.75427 | 2297 ft | 121 kts | 60° |
| 2026-05-04 03:52 | 54.53945 | -5.74241 | 1752 ft | 122 kts | 56° |
| 2026-05-04 03:53 | 54.54411 | -5.73275 | 1836 ft | 103 kts | 52° |
| 2026-05-04 03:53 | 54.54931 | -5.72361 | 1473 ft | 111 kts | 47° |
| 2026-05-04 03:53 | 54.55476 | -5.71399 | 1041 ft | 108 kts | 45° |
| 2026-05-04 03:53 | 54.56023 | -5.70714 | 678 ft | 87 kts | 28° |
| 2026-05-04 03:54 | 54.56535 | -5.70364 | 481 ft | 76 kts | 19° |
| 2026-05-04 03:54 | 54.57067 | -5.70112 | 333 ft | 79 kts | 18° |
| 2026-05-04 03:54 | 54.57519 | -5.69788 | 147 ft | 64 kts | 27° |
| 2026-05-04 03:54 | 54.57820 | -5.69484 | 28 ft | 23 kts | 25° |
| 2026-05-04 03:55 | 54.57900 | -5.69419 | 21 ft | 11 kts | 31° |
| 2026-05-04 03:55 | 54.57973 | -5.69341 | 17 ft | 25 kts | 27° |
| 2026-05-04 03:55 | 54.58158 | -5.69152 | 26 ft | 33 kts | 32° |
| 2026-05-04 03:55 | 54.58361 | -5.68942 | 36 ft | 34 kts | 33° |
| 2026-05-04 03:56 | 54.58547 | -5.68744 | 20 ft | 21 kts | 30° |
| 2026-05-04 03:56 | 54.58599 | -5.68673 | 9 ft | 8 kts | 82° |
| 2026-05-04 03:56 | 54.58572 | -5.68601 | 8 ft | 6 kts | 130° |
| 2026-05-04 03:56 | 54.58541 | -5.68547 | 8 ft | 6 kts | 144° |
| 2026-05-04 03:57 | 54.58522 | -5.68517 | 8 ft | 1 kts | 323° |
| 2026-05-04 03:57 | 54.58524 | -5.68519 | 8 ft | 0 kts | 317° |